Portada
METAR-TAF:

METAR-TAF

Aeroports :

Jamshedpur, Índia

latitud: 22-48-49N, longitud: 086-10-05E, altitud: 146 m

Observació

L'informe es va fer fa 31 minuts, a les 04:00 UTC
Vent 2 kt del Nord-Oest
Temperatura 29°C
Humitat 40%
Pressió 1014 hPa
Visibilitat: 3500 m
calitja

METAR: VEJS 230400Z 31002KT 3500 HZ NSC 29/14 Q1014

Hora: 10:01 (04:31 UTC)

Pronòstic

L'informe es va fer fa 2 hores i 31 minuts, a les 02:00 UTC
Pronòstic vàlid del 23 a les 03 UTC al 23 a les 12 UTC
Vent kt del Nord
Visibilitat: 3000 m
calitja
Evolucionant progressivament
l' 23 a les 04 UTC al 23 a les 06 UTC
Vent 5 kt del Oest
Visibilitat: 4500 m
Escasses núvols a una alçada de 2000 ft
calitja
Evolucionant progressivament
l' 23 a les 07 UTC al 23 a les 09 UTC
Núvols disperses a una alçada de 2000 ft
Escasses núvols a una alçada de 3000 ft, Cumulonimbus.

TAF: VEJS 230200Z 2303/2312 00000KT 3000 HZ NSC BECMG 2304/2306 27005KT 4500 HZ FEW020 BECMG 2307/2309 SCT020 FEW030CB

Observacions i pronòstics meteorològics de més de 4000 aeroports (METAR i TAF).

Les estacions disponibles són els punts grocs i vermells al mapa.

Posi el ratolí al punt desitjat per veure el nom de l'estació.

Feu clic per veure les observacions i els pronòstics meteorològics.

Per canviar el mapa: feu clic els botons verds amb una creu de color negre per apropar; al botó verd amb un guió per allunyar la imatge; o en les fletxes verdes per a mapes adjacents.


METAR-TAF: